sensor_id;sensor_type;location;lat;lon;timestamp;P1;durP1;ratioP1;P2;durP2;ratioP2
19024;SDS011;9645;51.448;6.260;2023-05-10T00:00:14;31.90;;;13.77;;
19024;SDS011;9645;51.448;6.260;2023-05-10T00:02:43;26.60;;;12.50;;
19024;SDS011;9645;51.448;6.260;2023-05-10T00:05:10;28.53;;;13.50;;
19024;SDS011;9645;51.448;6.260;2023-05-10T00:07:37;27.03;;;12.67;;
19024;SDS011;9645;51.448;6.260;2023-05-10T00:10:04;31.17;;;13.47;;
19024;SDS011;9645;51.448;6.260;2023-05-10T00:12:33;27.53;;;11.57;;
19024;SDS011;9645;51.448;6.260;2023-05-10T00:15:00;24.37;;;12.37;;
19024;SDS011;9645;51.448;6.260;2023-05-10T00:17:27;24.80;;;11.30;;
19024;SDS011;9645;51.448;6.260;2023-05-10T00:19:56;23.40;;;11.13;;
19024;SDS011;9645;51.448;6.260;2023-05-10T00:22:23;28.50;;;11.23;;
19024;SDS011;9645;51.448;6.260;2023-05-10T00:24:50;27.77;;;12.17;;
19024;SDS011;9645;51.448;6.260;2023-05-10T00:27:17;27.13;;;11.67;;
19024;SDS011;9645;51.448;6.260;2023-05-10T00:29:43;27.53;;;11.30;;
19024;SDS011;9645;51.448;6.260;2023-05-10T00:32:10;24.80;;;11.07;;
19024;SDS011;9645;51.448;6.260;2023-05-10T00:34:39;26.20;;;11.97;;
19024;SDS011;9645;51.448;6.260;2023-05-10T00:37:07;30.33;;;12.23;;
19024;SDS011;9645;51.448;6.260;2023-05-10T00:39:34;27.20;;;11.03;;
19024;SDS011;9645;51.448;6.260;2023-05-10T00:42:01;29.50;;;12.30;;
19024;SDS011;9645;51.448;6.260;2023-05-10T00:44:29;24.73;;;11.93;;
19024;SDS011;9645;51.448;6.260;2023-05-10T00:46:56;24.30;;;11.23;;
19024;SDS011;9645;51.448;6.260;2023-05-10T00:49:24;22.77;;;10.63;;
19024;SDS011;9645;51.448;6.260;2023-05-10T00:51:51;32.20;;;11.47;;
19024;SDS011;9645;51.448;6.260;2023-05-10T00:54:19;27.50;;;11.57;;
19024;SDS011;9645;51.448;6.260;2023-05-10T00:56:46;27.43;;;11.53;;
19024;SDS011;9645;51.448;6.260;2023-05-10T00:59:14;27.23;;;12.20;;
19024;SDS011;9645;51.448;6.260;2023-05-10T01:01:42;26.13;;;12.13;;
19024;SDS011;9645;51.448;6.260;2023-05-10T01:04:10;30.00;;;12.30;;
19024;SDS011;9645;51.448;6.260;2023-05-10T01:06:38;25.30;;;11.17;;
19024;SDS011;9645;51.448;6.260;2023-05-10T01:09:05;25.87;;;10.70;;
19024;SDS011;9645;51.448;6.260;2023-05-10T01:11:34;29.50;;;12.10;;
19024;SDS011;9645;51.448;6.260;2023-05-10T01:14:01;24.33;;;10.90;;
19024;SDS011;9645;51.448;6.260;2023-05-10T01:16:29;23.17;;;9.73;;
19024;SDS011;9645;51.448;6.260;2023-05-10T01:18:58;23.40;;;9.63;;
19024;SDS011;9645;51.448;6.260;2023-05-10T01:21:27;21.40;;;9.77;;
19024;SDS011;9645;51.448;6.260;2023-05-10T01:30:08;18.90;;;8.67;;
19024;SDS011;9645;51.448;6.260;2023-05-10T01:32:56;15.13;;;7.43;;
19024;SDS011;9645;51.448;6.260;2023-05-10T01:35:30;17.27;;;7.77;;
19024;SDS011;9645;51.448;6.260;2023-05-10T01:38:04;16.20;;;7.10;;
19024;SDS011;9645;51.448;6.260;2023-05-10T01:40:39;15.33;;;7.60;;
19024;SDS011;9645;51.448;6.260;2023-05-10T01:43:14;15.73;;;6.53;;
19024;SDS011;9645;51.448;6.260;2023-05-10T01:45:47;16.50;;;7.73;;
19024;SDS011;9645;51.448;6.260;2023-05-10T01:48:24;15.93;;;7.33;;
19024;SDS011;9645;51.448;6.260;2023-05-10T01:50:54;13.07;;;7.30;;
19024;SDS011;9645;51.448;6.260;2023-05-10T01:53:22;16.80;;;7.73;;
19024;SDS011;9645;51.448;6.260;2023-05-10T01:55:51;15.67;;;8.13;;
19024;SDS011;9645;51.448;6.260;2023-05-10T01:58:22;17.57;;;8.53;;
19024;SDS011;9645;51.448;6.260;2023-05-10T02:00:54;18.50;;;8.07;;
19024;SDS011;9645;51.448;6.260;2023-05-10T02:03:22;15.00;;;7.73;;
19024;SDS011;9645;51.448;6.260;2023-05-10T02:05:52;14.70;;;7.30;;
19024;SDS011;9645;51.448;6.260;2023-05-10T02:08:21;14.20;;;7.37;;
19024;SDS011;9645;51.448;6.260;2023-05-10T02:10:50;21.93;;;7.30;;
19024;SDS011;9645;51.448;6.260;2023-05-10T02:13:19;15.60;;;8.27;;
19024;SDS011;9645;51.448;6.260;2023-05-10T02:15:49;23.57;;;8.40;;
19024;SDS011;9645;51.448;6.260;2023-05-10T02:18:17;18.17;;;7.63;;
19024;SDS011;9645;51.448;6.260;2023-05-10T02:20:46;16.90;;;7.73;;
19024;SDS011;9645;51.448;6.260;2023-05-10T02:23:14;17.80;;;9.00;;
19024;SDS011;9645;51.448;6.260;2023-05-10T02:25:43;18.33;;;8.20;;
19024;SDS011;9645;51.448;6.260;2023-05-10T02:28:13;17.93;;;8.37;;
19024;SDS011;9645;51.448;6.260;2023-05-10T02:30:41;20.13;;;9.10;;
19024;SDS011;9645;51.448;6.260;2023-05-10T02:33:09;28.10;;;9.27;;
19024;SDS011;9645;51.448;6.260;2023-05-10T02:35:37;17.77;;;9.17;;
19024;SDS011;9645;51.448;6.260;2023-05-10T02:38:06;17.90;;;9.20;;
19024;SDS011;9645;51.448;6.260;2023-05-10T02:40:34;25.20;;;10.77;;
19024;SDS011;9645;51.448;6.260;2023-05-10T02:43:02;24.37;;;10.60;;
19024;SDS011;9645;51.448;6.260;2023-05-10T02:45:32;28.73;;;11.23;;
19024;SDS011;9645;51.448;6.260;2023-05-10T02:48:04;25.30;;;10.47;;
19024;SDS011;9645;51.448;6.260;2023-05-10T02:50:32;28.73;;;10.63;;
19024;SDS011;9645;51.448;6.260;2023-05-10T02:53:01;22.90;;;10.57;;
19024;SDS011;9645;51.448;6.260;2023-05-10T02:55:37;27.30;;;12.20;;
19024;SDS011;9645;51.448;6.260;2023-05-10T02:58:07;31.70;;;12.63;;
19024;SDS011;9645;51.448;6.260;2023-05-10T03:00:34;31.40;;;11.77;;
19024;SDS011;9645;51.448;6.260;2023-05-10T03:03:02;28.80;;;11.70;;
19024;SDS011;9645;51.448;6.260;2023-05-10T03:05:29;31.63;;;13.50;;
19024;SDS011;9645;51.448;6.260;2023-05-10T03:07:56;38.87;;;14.03;;
19024;SDS011;9645;51.448;6.260;2023-05-10T03:10:25;37.97;;;15.07;;
19024;SDS011;9645;51.448;6.260;2023-05-10T03:13:06;38.90;;;15.00;;
19024;SDS011;9645;51.448;6.260;2023-05-10T03:15:42;43.90;;;15.13;;
19024;SDS011;9645;51.448;6.260;2023-05-10T03:18:16;41.77;;;15.77;;
19024;SDS011;9645;51.448;6.260;2023-05-10T03:20:48;43.33;;;15.67;;
19024;SDS011;9645;51.448;6.260;2023-05-10T03:23:20;40.23;;;15.83;;
19024;SDS011;9645;51.448;6.260;2023-05-10T03:25:49;43.60;;;14.63;;
19024;SDS011;9645;51.448;6.260;2023-05-10T03:28:20;50.30;;;17.17;;
19024;SDS011;9645;51.448;6.260;2023-05-10T03:30:47;46.87;;;16.83;;
19024;SDS011;9645;51.448;6.260;2023-05-10T03:33:15;45.00;;;17.20;;
19024;SDS011;9645;51.448;6.260;2023-05-10T03:35:42;46.63;;;18.60;;
19024;SDS011;9645;51.448;6.260;2023-05-10T03:38:10;48.17;;;18.13;;
19024;SDS011;9645;51.448;6.260;2023-05-10T03:40:38;52.80;;;18.30;;
19024;SDS011;9645;51.448;6.260;2023-05-10T03:43:05;50.63;;;17.73;;
19024;SDS011;9645;51.448;6.260;2023-05-10T03:45:33;50.27;;;19.17;;
19024;SDS011;9645;51.448;6.260;2023-05-10T03:48:00;48.03;;;18.23;;
19024;SDS011;9645;51.448;6.260;2023-05-10T03:50:27;48.93;;;18.97;;
19024;SDS011;9645;51.448;6.260;2023-05-10T03:52:54;56.30;;;20.37;;
19024;SDS011;9645;51.448;6.260;2023-05-10T03:55:22;48.13;;;18.20;;
19024;SDS011;9645;51.448;6.260;2023-05-10T03:57:49;49.03;;;19.63;;
19024;SDS011;9645;51.448;6.260;2023-05-10T04:00:16;58.10;;;19.47;;
19024;SDS011;9645;51.448;6.260;2023-05-10T04:02:44;67.30;;;21.73;;
19024;SDS011;9645;51.448;6.260;2023-05-10T04:05:11;68.30;;;22.47;;
19024;SDS011;9645;51.448;6.260;2023-05-10T04:07:38;46.63;;;18.70;;
19024;SDS011;9645;51.448;6.260;2023-05-10T04:10:05;56.30;;;20.30;;
19024;SDS011;9645;51.448;6.260;2023-05-10T04:12:33;52.70;;;21.07;;
19024;SDS011;9645;51.448;6.260;2023-05-10T04:15:00;54.93;;;20.83;;
19024;SDS011;9645;51.448;6.260;2023-05-10T04:17:27;57.30;;;21.23;;
19024;SDS011;9645;51.448;6.260;2023-05-10T04:19:55;55.20;;;22.50;;
19024;SDS011;9645;51.448;6.260;2023-05-10T04:22:22;60.67;;;22.50;;
19024;SDS011;9645;51.448;6.260;2023-05-10T04:24:49;54.80;;;21.10;;
19024;SDS011;9645;51.448;6.260;2023-05-10T04:27:16;61.47;;;23.73;;
19024;SDS011;9645;51.448;6.260;2023-05-10T04:29:43;67.90;;;23.30;;
19024;SDS011;9645;51.448;6.260;2023-05-10T04:32:10;63.20;;;24.10;;
19024;SDS011;9645;51.448;6.260;2023-05-10T04:34:37;68.83;;;23.77;;
19024;SDS011;9645;51.448;6.260;2023-05-10T04:37:05;61.50;;;22.20;;
19024;SDS011;9645;51.448;6.260;2023-05-10T04:39:32;65.87;;;22.50;;
19024;SDS011;9645;51.448;6.260;2023-05-10T04:42:00;70.50;;;23.30;;
19024;SDS011;9645;51.448;6.260;2023-05-10T04:44:27;71.53;;;22.80;;
19024;SDS011;9645;51.448;6.260;2023-05-10T04:46:54;80.17;;;24.80;;
19024;SDS011;9645;51.448;6.260;2023-05-10T04:49:21;67.10;;;23.70;;
19024;SDS011;9645;51.448;6.260;2023-05-10T04:51:48;59.23;;;23.07;;
19024;SDS011;9645;51.448;6.260;2023-05-10T04:54:17;70.87;;;22.13;;
19024;SDS011;9645;51.448;6.260;2023-05-10T04:56:44;67.03;;;22.40;;
19024;SDS011;9645;51.448;6.260;2023-05-10T04:59:11;73.13;;;22.60;;
19024;SDS011;9645;51.448;6.260;2023-05-10T05:01:38;67.50;;;23.17;;
19024;SDS011;9645;51.448;6.260;2023-05-10T05:04:05;73.90;;;25.23;;
19024;SDS011;9645;51.448;6.260;2023-05-10T05:06:32;69.30;;;22.57;;
19024;SDS011;9645;51.448;6.260;2023-05-10T05:08:59;71.00;;;23.13;;
19024;SDS011;9645;51.448;6.260;2023-05-10T05:11:28;72.73;;;24.10;;
19024;SDS011;9645;51.448;6.260;2023-05-10T05:13:55;73.20;;;24.30;;
19024;SDS011;9645;51.448;6.260;2023-05-10T05:16:23;69.77;;;24.13;;
19024;SDS011;9645;51.448;6.260;2023-05-10T05:18:51;70.13;;;23.07;;
19024;SDS011;9645;51.448;6.260;2023-05-10T05:21:18;74.67;;;25.03;;
19024;SDS011;9645;51.448;6.260;2023-05-10T05:23:46;72.20;;;22.73;;
19024;SDS011;9645;51.448;6.260;2023-05-10T05:26:13;71.17;;;23.10;;
19024;SDS011;9645;51.448;6.260;2023-05-10T05:28:42;73.07;;;25.40;;
19024;SDS011;9645;51.448;6.260;2023-05-10T05:31:08;75.50;;;26.23;;
19024;SDS011;9645;51.448;6.260;2023-05-10T05:33:35;69.63;;;24.03;;
19024;SDS011;9645;51.448;6.260;2023-05-10T05:36:03;71.80;;;25.07;;
19024;SDS011;9645;51.448;6.260;2023-05-10T05:38:31;67.97;;;24.27;;
19024;SDS011;9645;51.448;6.260;2023-05-10T05:40:58;66.90;;;23.80;;
19024;SDS011;9645;51.448;6.260;2023-05-10T05:43:25;76.90;;;27.10;;
19024;SDS011;9645;51.448;6.260;2023-05-10T05:45:53;70.50;;;22.90;;
19024;SDS011;9645;51.448;6.260;2023-05-10T05:48:22;74.10;;;24.47;;
19024;SDS011;9645;51.448;6.260;2023-05-10T05:50:49;70.17;;;23.73;;
19024;SDS011;9645;51.448;6.260;2023-05-10T05:53:20;75.90;;;23.70;;
19024;SDS011;9645;51.448;6.260;2023-05-10T05:55:53;83.67;;;24.70;;
19024;SDS011;9645;51.448;6.260;2023-05-10T05:58:20;82.03;;;24.87;;
19024;SDS011;9645;51.448;6.260;2023-05-10T06:00:47;73.67;;;23.97;;
19024;SDS011;9645;51.448;6.260;2023-05-10T06:03:18;74.87;;;22.40;;
19024;SDS011;9645;51.448;6.260;2023-05-10T06:05:45;63.13;;;22.80;;
19024;SDS011;9645;51.448;6.260;2023-05-10T06:08:12;77.63;;;22.77;;
19024;SDS011;9645;51.448;6.260;2023-05-10T06:10:39;74.93;;;22.40;;
19024;SDS011;9645;51.448;6.260;2023-05-10T06:13:06;75.63;;;24.17;;
19024;SDS011;9645;51.448;6.260;2023-05-10T06:15:33;67.93;;;22.23;;
19024;SDS011;9645;51.448;6.260;2023-05-10T06:18:00;96.43;;;24.80;;
19024;SDS011;9645;51.448;6.260;2023-05-10T06:20:29;99.23;;;24.47;;
19024;SDS011;9645;51.448;6.260;2023-05-10T06:22:57;89.17;;;24.47;;
19024;SDS011;9645;51.448;6.260;2023-05-10T06:25:24;76.80;;;22.30;;
19024;SDS011;9645;51.448;6.260;2023-05-10T06:27:51;75.23;;;24.30;;
19024;SDS011;9645;51.448;6.260;2023-05-10T06:30:22;91.53;;;25.27;;
19024;SDS011;9645;51.448;6.260;2023-05-10T06:32:52;92.10;;;27.50;;
19024;SDS011;9645;51.448;6.260;2023-05-10T06:35:20;94.83;;;25.87;;
19024;SDS011;9645;51.448;6.260;2023-05-10T06:37:48;101.77;;;27.17;;
19024;SDS011;9645;51.448;6.260;2023-05-10T06:40:16;94.00;;;26.87;;
19024;SDS011;9645;51.448;6.260;2023-05-10T06:42:43;95.17;;;25.30;;
19024;SDS011;9645;51.448;6.260;2023-05-10T06:45:11;100.27;;;27.20;;
19024;SDS011;9645;51.448;6.260;2023-05-10T06:47:39;103.00;;;27.53;;
19024;SDS011;9645;51.448;6.260;2023-05-10T06:50:06;103.73;;;25.47;;
19024;SDS011;9645;51.448;6.260;2023-05-10T06:52:34;87.37;;;24.90;;
19024;SDS011;9645;51.448;6.260;2023-05-10T06:55:03;88.30;;;26.17;;
19024;SDS011;9645;51.448;6.260;2023-05-10T06:57:31;88.83;;;25.40;;
19024;SDS011;9645;51.448;6.260;2023-05-10T07:00:02;89.17;;;25.43;;
19024;SDS011;9645;51.448;6.260;2023-05-10T07:02:30;87.10;;;25.13;;
19024;SDS011;9645;51.448;6.260;2023-05-10T07:04:57;88.63;;;24.90;;
19024;SDS011;9645;51.448;6.260;2023-05-10T07:07:24;86.13;;;24.97;;
19024;SDS011;9645;51.448;6.260;2023-05-10T07:09:51;88.43;;;24.13;;
19024;SDS011;9645;51.448;6.260;2023-05-10T07:12:20;85.13;;;24.90;;
19024;SDS011;9645;51.448;6.260;2023-05-10T07:14:49;85.37;;;24.20;;
19024;SDS011;9645;51.448;6.260;2023-05-10T07:17:16;79.33;;;23.00;;
19024;SDS011;9645;51.448;6.260;2023-05-10T07:19:44;68.30;;;22.33;;
19024;SDS011;9645;51.448;6.260;2023-05-10T07:22:11;87.60;;;23.33;;
19024;SDS011;9645;51.448;6.260;2023-05-10T07:24:38;80.03;;;22.50;;
19024;SDS011;9645;51.448;6.260;2023-05-10T07:27:06;71.23;;;22.70;;
19024;SDS011;9645;51.448;6.260;2023-05-10T07:29:35;66.17;;;23.43;;
19024;SDS011;9645;51.448;6.260;2023-05-10T07:32:02;67.37;;;21.47;;
19024;SDS011;9645;51.448;6.260;2023-05-10T07:34:30;67.67;;;21.87;;
19024;SDS011;9645;51.448;6.260;2023-05-10T07:36:57;65.20;;;20.90;;
19024;SDS011;9645;51.448;6.260;2023-05-10T07:39:25;62.70;;;20.00;;
19024;SDS011;9645;51.448;6.260;2023-05-10T07:41:53;54.37;;;20.80;;
19024;SDS011;9645;51.448;6.260;2023-05-10T07:44:23;57.03;;;18.30;;
19024;SDS011;9645;51.448;6.260;2023-05-10T07:46:51;40.83;;;16.97;;
19024;SDS011;9645;51.448;6.260;2023-05-10T07:49:18;33.50;;;15.17;;
19024;SDS011;9645;51.448;6.260;2023-05-10T07:51:45;30.63;;;14.10;;
19024;SDS011;9645;51.448;6.260;2023-05-10T07:54:13;32.77;;;14.13;;
19024;SDS011;9645;51.448;6.260;2023-05-10T07:56:40;28.13;;;13.17;;
19024;SDS011;9645;51.448;6.260;2023-05-10T07:59:13;26.83;;;13.03;;
19024;SDS011;9645;51.448;6.260;2023-05-10T08:01:42;35.90;;;14.90;;
19024;SDS011;9645;51.448;6.260;2023-05-10T08:04:11;29.97;;;12.97;;
19024;SDS011;9645;51.448;6.260;2023-05-10T08:06:39;33.30;;;14.40;;
19024;SDS011;9645;51.448;6.260;2023-05-10T08:09:09;36.43;;;14.30;;
19024;SDS011;9645;51.448;6.260;2023-05-10T08:11:36;35.63;;;14.67;;
19024;SDS011;9645;51.448;6.260;2023-05-10T08:14:03;42.47;;;16.97;;
19024;SDS011;9645;51.448;6.260;2023-05-10T08:16:30;43.63;;;16.87;;
19024;SDS011;9645;51.448;6.260;2023-05-10T08:18:59;47.63;;;17.20;;
19024;SDS011;9645;51.448;6.260;2023-05-10T08:21:27;35.63;;;15.63;;
19024;SDS011;9645;51.448;6.260;2023-05-10T08:23:56;36.20;;;16.03;;
19024;SDS011;9645;51.448;6.260;2023-05-10T08:26:23;42.40;;;16.70;;
19024;SDS011;9645;51.448;6.260;2023-05-10T08:28:50;45.17;;;16.50;;
19024;SDS011;9645;51.448;6.260;2023-05-10T08:31:17;39.53;;;16.10;;
19024;SDS011;9645;51.448;6.260;2023-05-10T08:33:44;32.07;;;14.43;;
19024;SDS011;9645;51.448;6.260;2023-05-10T08:36:11;38.90;;;15.70;;
19024;SDS011;9645;51.448;6.260;2023-05-10T08:38:46;33.13;;;14.90;;
19024;SDS011;9645;51.448;6.260;2023-05-10T08:41:13;35.30;;;15.30;;
19024;SDS011;9645;51.448;6.260;2023-05-10T08:43:40;41.97;;;14.73;;
19024;SDS011;9645;51.448;6.260;2023-05-10T08:46:11;41.10;;;15.40;;
19024;SDS011;9645;51.448;6.260;2023-05-10T08:48:42;31.40;;;14.60;;
19024;SDS011;9645;51.448;6.260;2023-05-10T08:51:10;37.83;;;15.20;;
19024;SDS011;9645;51.448;6.260;2023-05-10T08:53:40;36.73;;;15.60;;
19024;SDS011;9645;51.448;6.260;2023-05-10T08:56:08;41.00;;;15.10;;
19024;SDS011;9645;51.448;6.260;2023-05-10T08:58:35;41.67;;;15.53;;
19024;SDS011;9645;51.448;6.260;2023-05-10T09:01:02;46.63;;;15.90;;
19024;SDS011;9645;51.448;6.260;2023-05-10T09:03:31;36.50;;;16.10;;
19024;SDS011;9645;51.448;6.260;2023-05-10T09:06:00;32.00;;;14.40;;
19024;SDS011;9645;51.448;6.260;2023-05-10T09:08:27;48.30;;;17.70;;
19024;SDS011;9645;51.448;6.260;2023-05-10T09:10:55;38.13;;;15.60;;
19024;SDS011;9645;51.448;6.260;2023-05-10T09:13:24;36.90;;;16.40;;
19024;SDS011;9645;51.448;6.260;2023-05-10T09:15:51;45.90;;;16.90;;
19024;SDS011;9645;51.448;6.260;2023-05-10T09:18:19;41.53;;;16.17;;
19024;SDS011;9645;51.448;6.260;2023-05-10T09:20:46;44.17;;;17.97;;
19024;SDS011;9645;51.448;6.260;2023-05-10T09:23:12;48.20;;;17.57;;
19024;SDS011;9645;51.448;6.260;2023-05-10T09:25:40;44.27;;;19.20;;
19024;SDS011;9645;51.448;6.260;2023-05-10T09:28:08;41.80;;;17.53;;
19024;SDS011;9645;51.448;6.260;2023-05-10T09:30:37;46.93;;;18.87;;
19024;SDS011;9645;51.448;6.260;2023-05-10T09:33:04;41.13;;;17.90;;
19024;SDS011;9645;51.448;6.260;2023-05-10T09:35:31;43.40;;;17.33;;
19024;SDS011;9645;51.448;6.260;2023-05-10T09:38:00;43.77;;;18.00;;
19024;SDS011;9645;51.448;6.260;2023-05-10T09:40:29;38.73;;;17.37;;
19024;SDS011;9645;51.448;6.260;2023-05-10T09:42:57;42.70;;;17.37;;
19024;SDS011;9645;51.448;6.260;2023-05-10T09:45:25;38.37;;;16.30;;
19024;SDS011;9645;51.448;6.260;2023-05-10T09:47:54;41.40;;;17.53;;
19024;SDS011;9645;51.448;6.260;2023-05-10T09:50:22;40.77;;;18.43;;
19024;SDS011;9645;51.448;6.260;2023-05-10T09:52:50;39.47;;;16.53;;
19024;SDS011;9645;51.448;6.260;2023-05-10T09:55:19;46.07;;;17.27;;
19024;SDS011;9645;51.448;6.260;2023-05-10T09:57:47;48.93;;;19.80;;
19024;SDS011;9645;51.448;6.260;2023-05-10T10:00:16;48.10;;;20.30;;
19024;SDS011;9645;51.448;6.260;2023-05-10T10:02:45;38.07;;;16.13;;
19024;SDS011;9645;51.448;6.260;2023-05-10T10:05:14;33.47;;;15.03;;
19024;SDS011;9645;51.448;6.260;2023-05-10T10:07:42;35.17;;;14.50;;
19024;SDS011;9645;51.448;6.260;2023-05-10T10:10:09;29.63;;;14.60;;
19024;SDS011;9645;51.448;6.260;2023-05-10T10:12:38;38.50;;;15.65;;
19024;SDS011;9645;51.448;6.260;2023-05-10T10:15:07;40.23;;;15.23;;
19024;SDS011;9645;51.448;6.260;2023-05-10T10:17:35;27.07;;;13.87;;
19024;SDS011;9645;51.448;6.260;2023-05-10T10:20:04;36.53;;;13.80;;
19024;SDS011;9645;51.448;6.260;2023-05-10T10:22:33;31.90;;;13.13;;
19024;SDS011;9645;51.448;6.260;2023-05-10T10:25:00;25.33;;;12.53;;
19024;SDS011;9645;51.448;6.260;2023-05-10T10:30:17;27.90;;;13.77;;
19024;SDS011;9645;51.448;6.260;2023-05-10T10:33:01;22.73;;;11.33;;
19024;SDS011;9645;51.448;6.260;2023-05-10T10:35:45;19.60;;;10.10;;
19024;SDS011;9645;51.448;6.260;2023-05-10T10:38:14;24.90;;;10.77;;
19024;SDS011;9645;51.448;6.260;2023-05-10T10:40:41;24.90;;;11.60;;
19024;SDS011;9645;51.448;6.260;2023-05-10T10:43:21;22.53;;;10.20;;
19024;SDS011;9645;51.448;6.260;2023-05-10T10:48:37;21.67;;;10.43;;
19024;SDS011;9645;51.448;6.260;2023-05-10T10:51:05;23.00;;;10.50;;
19024;SDS011;9645;51.448;6.260;2023-05-10T10:53:33;22.70;;;10.33;;
19024;SDS011;9645;51.448;6.260;2023-05-10T10:56:06;27.40;;;11.07;;
19024;SDS011;9645;51.448;6.260;2023-05-10T10:58:34;21.37;;;11.00;;
19024;SDS011;9645;51.448;6.260;2023-05-10T11:01:13;19.00;;;10.27;;
19024;SDS011;9645;51.448;6.260;2023-05-10T11:03:41;20.10;;;9.97;;
19024;SDS011;9645;51.448;6.260;2023-05-10T11:06:41;17.77;;;10.00;;
19024;SDS011;9645;51.448;6.260;2023-05-10T11:09:10;19.33;;;10.17;;
19024;SDS011;9645;51.448;6.260;2023-05-10T11:11:48;23.73;;;11.23;;
19024;SDS011;9645;51.448;6.260;2023-05-10T11:14:19;24.23;;;11.13;;
19024;SDS011;9645;51.448;6.260;2023-05-10T11:16:48;24.93;;;11.20;;
19024;SDS011;9645;51.448;6.260;2023-05-10T11:19:15;27.70;;;11.00;;
19024;SDS011;9645;51.448;6.260;2023-05-10T11:21:46;17.97;;;10.63;;
19024;SDS011;9645;51.448;6.260;2023-05-10T11:24:16;19.80;;;11.00;;
19024;SDS011;9645;51.448;6.260;2023-05-10T11:26:44;16.07;;;10.00;;
19024;SDS011;9645;51.448;6.260;2023-05-10T11:29:12;17.47;;;9.27;;
19024;SDS011;9645;51.448;6.260;2023-05-10T11:31:43;17.50;;;9.90;;
19024;SDS011;9645;51.448;6.260;2023-05-10T11:34:11;18.33;;;9.93;;
19024;SDS011;9645;51.448;6.260;2023-05-10T11:36:50;14.87;;;8.20;;
19024;SDS011;9645;51.448;6.260;2023-05-10T11:39:20;17.97;;;9.43;;
19024;SDS011;9645;51.448;6.260;2023-05-10T11:41:48;15.80;;;8.43;;
19024;SDS011;9645;51.448;6.260;2023-05-10T11:44:15;17.00;;;9.63;;
19024;SDS011;9645;51.448;6.260;2023-05-10T11:46:43;13.30;;;8.40;;
19024;SDS011;9645;51.448;6.260;2023-05-10T11:49:10;16.60;;;8.50;;
19024;SDS011;9645;51.448;6.260;2023-05-10T11:51:38;19.53;;;8.63;;
19024;SDS011;9645;51.448;6.260;2023-05-10T11:54:09;15.03;;;8.63;;
19024;SDS011;9645;51.448;6.260;2023-05-10T11:56:38;16.03;;;8.60;;
19024;SDS011;9645;51.448;6.260;2023-05-10T11:59:06;20.23;;;8.77;;
19024;SDS011;9645;51.448;6.260;2023-05-10T12:01:34;15.43;;;9.17;;
19024;SDS011;9645;51.448;6.260;2023-05-10T12:04:01;16.57;;;8.80;;
19024;SDS011;9645;51.448;6.260;2023-05-10T12:06:29;19.77;;;9.43;;
19024;SDS011;9645;51.448;6.260;2023-05-10T12:08:58;17.30;;;10.00;;
19024;SDS011;9645;51.448;6.260;2023-05-10T12:11:25;18.73;;;9.60;;
19024;SDS011;9645;51.448;6.260;2023-05-10T12:13:55;20.20;;;10.10;;
19024;SDS011;9645;51.448;6.260;2023-05-10T12:16:23;22.07;;;9.90;;
19024;SDS011;9645;51.448;6.260;2023-05-10T12:18:51;20.23;;;11.30;;
19024;SDS011;9645;51.448;6.260;2023-05-10T12:21:22;18.70;;;10.17;;
19024;SDS011;9645;51.448;6.260;2023-05-10T12:23:51;16.97;;;10.43;;
19024;SDS011;9645;51.448;6.260;2023-05-10T12:26:21;18.47;;;10.93;;
19024;SDS011;9645;51.448;6.260;2023-05-10T12:28:49;21.03;;;11.90;;
19024;SDS011;9645;51.448;6.260;2023-05-10T12:31:18;21.67;;;11.53;;
19024;SDS011;9645;51.448;6.260;2023-05-10T12:33:45;25.40;;;13.20;;
19024;SDS011;9645;51.448;6.260;2023-05-10T12:36:14;22.93;;;13.10;;
19024;SDS011;9645;51.448;6.260;2023-05-10T12:38:43;21.23;;;11.33;;
19024;SDS011;9645;51.448;6.260;2023-05-10T12:41:14;23.57;;;11.93;;
19024;SDS011;9645;51.448;6.260;2023-05-10T12:43:42;23.90;;;13.50;;
19024;SDS011;9645;51.448;6.260;2023-05-10T12:46:10;23.63;;;12.00;;
19024;SDS011;9645;51.448;6.260;2023-05-10T12:48:41;25.23;;;13.20;;
19024;SDS011;9645;51.448;6.260;2023-05-10T12:51:09;27.27;;;14.37;;
19024;SDS011;9645;51.448;6.260;2023-05-10T12:53:38;28.47;;;14.40;;
19024;SDS011;9645;51.448;6.260;2023-05-10T12:56:05;23.90;;;13.10;;
19024;SDS011;9645;51.448;6.260;2023-05-10T12:58:33;24.40;;;13.20;;
19024;SDS011;9645;51.448;6.260;2023-05-10T13:01:00;27.27;;;14.20;;
19024;SDS011;9645;51.448;6.260;2023-05-10T13:03:27;27.40;;;14.70;;
19024;SDS011;9645;51.448;6.260;2023-05-10T13:05:56;26.70;;;14.70;;
19024;SDS011;9645;51.448;6.260;2023-05-10T13:08:23;28.27;;;15.10;;
19024;SDS011;9645;51.448;6.260;2023-05-10T13:10:50;30.00;;;16.03;;
19024;SDS011;9645;51.448;6.260;2023-05-10T13:13:17;30.33;;;15.60;;
19024;SDS011;9645;51.448;6.260;2023-05-10T13:15:44;36.27;;;16.70;;
19024;SDS011;9645;51.448;6.260;2023-05-10T13:18:11;29.83;;;15.00;;
19024;SDS011;9645;51.448;6.260;2023-05-10T13:20:38;33.13;;;15.80;;
19024;SDS011;9645;51.448;6.260;2023-05-10T13:23:06;29.67;;;15.70;;
19024;SDS011;9645;51.448;6.260;2023-05-10T13:25:33;31.30;;;16.37;;
19024;SDS011;9645;51.448;6.260;2023-05-10T13:28:00;31.77;;;16.10;;
19024;SDS011;9645;51.448;6.260;2023-05-10T13:30:27;35.93;;;16.50;;
19024;SDS011;9645;51.448;6.260;2023-05-10T13:32:54;33.10;;;16.27;;
19024;SDS011;9645;51.448;6.260;2023-05-10T13:35:21;31.70;;;16.10;;
19024;SDS011;9645;51.448;6.260;2023-05-10T13:37:49;34.80;;;14.77;;
19024;SDS011;9645;51.448;6.260;2023-05-10T13:40:18;31.57;;;15.57;;
19024;SDS011;9645;51.448;6.260;2023-05-10T13:42:45;28.47;;;14.07;;
19024;SDS011;9645;51.448;6.260;2023-05-10T13:45:15;33.17;;;14.00;;
19024;SDS011;9645;51.448;6.260;2023-05-10T13:47:43;25.17;;;13.07;;
19024;SDS011;9645;51.448;6.260;2023-05-10T13:50:10;20.80;;;11.93;;
19024;SDS011;9645;51.448;6.260;2023-05-10T13:52:38;26.67;;;13.20;;
19024;SDS011;9645;51.448;6.260;2023-05-10T13:55:05;28.17;;;12.73;;
19024;SDS011;9645;51.448;6.260;2023-05-10T13:57:35;19.70;;;10.10;;
19024;SDS011;9645;51.448;6.260;2023-05-10T14:00:02;12.70;;;6.97;;
19024;SDS011;9645;51.448;6.260;2023-05-10T14:02:30;13.13;;;5.33;;
19024;SDS011;9645;51.448;6.260;2023-05-10T14:04:57;12.43;;;5.43;;
19024;SDS011;9645;51.448;6.260;2023-05-10T14:07:24;12.23;;;5.73;;
19024;SDS011;9645;51.448;6.260;2023-05-10T14:09:51;14.27;;;6.33;;
19024;SDS011;9645;51.448;6.260;2023-05-10T14:12:18;10.37;;;5.70;;
19024;SDS011;9645;51.448;6.260;2023-05-10T14:14:46;9.93;;;5.40;;
19024;SDS011;9645;51.448;6.260;2023-05-10T14:17:13;8.90;;;6.10;;
19024;SDS011;9645;51.448;6.260;2023-05-10T14:19:41;13.10;;;6.90;;
19024;SDS011;9645;51.448;6.260;2023-05-10T14:22:08;11.90;;;7.20;;
19024;SDS011;9645;51.448;6.260;2023-05-10T14:24:35;13.20;;;7.00;;
19024;SDS011;9645;51.448;6.260;2023-05-10T14:27:02;18.63;;;7.80;;
19024;SDS011;9645;51.448;6.260;2023-05-10T14:29:33;17.00;;;8.00;;
19024;SDS011;9645;51.448;6.260;2023-05-10T14:32:05;21.50;;;11.57;;
19024;SDS011;9645;51.448;6.260;2023-05-10T14:34:32;25.60;;;12.20;;
19024;SDS011;9645;51.448;6.260;2023-05-10T14:37:00;14.90;;;8.60;;
19024;SDS011;9645;51.448;6.260;2023-05-10T14:39:27;22.27;;;11.77;;
19024;SDS011;9645;51.448;6.260;2023-05-10T14:41:55;25.43;;;14.50;;
19024;SDS011;9645;51.448;6.260;2023-05-10T14:44:22;33.20;;;13.67;;
19024;SDS011;9645;51.448;6.260;2023-05-10T14:46:49;71.87;;;35.73;;
19024;SDS011;9645;51.448;6.260;2023-05-10T14:49:18;17.20;;;10.23;;
19024;SDS011;9645;51.448;6.260;2023-05-10T14:51:47;18.37;;;9.63;;
19024;SDS011;9645;51.448;6.260;2023-05-10T14:54:15;19.77;;;9.90;;